createdAt,value
2022-10-08T00:00:26.073Z,11.02
2022-10-08T00:06:05.455Z,11.88
2022-10-08T00:11:37.526Z,12.73
2022-10-08T00:16:58.073Z,11.55
2022-10-08T00:22:18.838Z,10.63
2022-10-08T00:27:39.342Z,10.85
2022-10-08T00:33:01.696Z,12.10
2022-10-08T00:38:22.469Z,11.18
2022-10-08T00:43:46.521Z,10.50
2022-10-08T00:49:17.128Z,9.70
2022-10-08T00:54:37.955Z,10.27
2022-10-08T00:59:59.076Z,10.68
2022-10-08T01:05:30.571Z,11.15
2022-10-08T01:11:17.869Z,10.00
2022-10-08T01:16:44.005Z,11.77
2022-10-08T01:22:10.667Z,11.93
2022-10-08T01:27:36.701Z,10.70
2022-10-08T01:33:03.274Z,11.93
2022-10-08T01:38:28.194Z,10.50
2022-10-08T01:43:54.572Z,11.30
2022-10-08T01:49:22.737Z,8.75
2022-10-08T01:54:48.319Z,9.13
2022-10-08T02:00:12.496Z,10.02
2022-10-08T02:05:37.303Z,10.15
2022-10-08T02:10:58.519Z,9.88
2022-10-08T02:16:29.342Z,9.20
2022-10-08T02:21:52.749Z,9.80
2022-10-08T02:27:15.363Z,9.57
2022-10-08T02:32:45.958Z,10.07
2022-10-08T02:38:11.671Z,10.15
2022-10-08T02:43:35.006Z,10.23
2022-10-08T02:49:06.831Z,9.90
2022-10-08T02:54:34.630Z,9.70
2022-10-08T02:59:56.266Z,9.13
2022-10-08T03:05:19.794Z,9.88
2022-10-08T03:10:43.234Z,9.73
2022-10-08T03:16:07.973Z,9.20
2022-10-08T03:21:28.788Z,9.52
2022-10-08T03:26:49.427Z,10.45
2022-10-08T03:32:10.099Z,9.65
2022-10-08T03:37:30.853Z,9.38
2022-10-08T03:42:51.976Z,10.23
2022-10-08T03:48:12.757Z,8.98
2022-10-08T03:53:35.192Z,9.77
2022-10-08T03:59:00.330Z,9.27
2022-10-08T04:04:25.416Z,9.35
2022-10-08T04:09:46.413Z,9.38
2022-10-08T04:15:07.691Z,9.73
2022-10-08T04:20:28.230Z,8.70
2022-10-08T04:25:50.973Z,9.93
2022-10-08T04:31:13.685Z,10.07
2022-10-08T04:36:34.261Z,9.30
2022-10-08T04:41:54.955Z,10.10
2022-10-08T04:47:15.670Z,9.35
2022-10-08T04:52:36.262Z,10.90
2022-10-08T04:57:57.128Z,9.02
2022-10-08T05:03:18.073Z,9.23
2022-10-08T05:08:39.391Z,7.28
2022-10-08T05:14:00.769Z,7.95
2022-10-08T05:19:21.373Z,8.30
2022-10-08T05:24:41.851Z,9.02
2022-10-08T05:30:03.261Z,8.82
2022-10-08T05:35:24.239Z,8.40
2022-10-08T05:40:45.015Z,7.90
2022-10-08T05:46:06.295Z,8.80
2022-10-08T05:51:28.230Z,8.77
2022-10-08T05:56:49.096Z,8.48
2022-10-08T06:02:11.400Z,10.07
2022-10-08T06:07:32.386Z,9.18
2022-10-08T06:12:53.050Z,10.02
2022-10-08T06:18:13.517Z,11.07
2022-10-08T06:23:34.895Z,10.80
2022-10-08T06:28:56.169Z,9.65
2022-10-08T06:34:17.078Z,8.82
2022-10-08T06:39:37.896Z,8.32
2022-10-08T06:45:02.046Z,8.40
2022-10-08T06:50:23.145Z,9.25
2022-10-08T06:55:43.848Z,9.38
2022-10-08T07:01:05.515Z,9.07
2022-10-08T07:06:27.168Z,9.15
2022-10-08T07:11:48.125Z,9.05
2022-10-08T07:17:08.878Z,7.13
2022-10-08T07:22:29.395Z,9.05
2022-10-08T07:27:50.147Z,7.70
2022-10-08T07:33:11.019Z,7.88
2022-10-08T07:38:31.877Z,5.28
2022-10-08T07:43:54.409Z,8.23
2022-10-08T07:49:16.937Z,6.97
2022-10-08T07:54:37.653Z,6.05
2022-10-08T07:59:58.382Z,5.30
2022-10-08T08:05:19.179Z,8.02
2022-10-08T08:10:39.805Z,7.55
2022-10-08T08:16:03.297Z,8.93
2022-10-08T08:21:29.836Z,6.05
2022-10-08T08:26:51.554Z,6.70
2022-10-08T08:32:34.016Z,8.98
2022-10-08T08:37:54.922Z,8.18
2022-10-08T08:43:16.329Z,6.63
2022-10-08T08:48:39.677Z,6.30
2022-10-08T08:54:00.711Z,6.47
2022-10-08T08:59:32.181Z,6.88
2022-10-08T09:05:04.096Z,8.55
2022-10-08T09:10:36.078Z,7.35
2022-10-08T09:15:57.048Z,7.57
2022-10-08T09:21:19.697Z,6.00
2022-10-08T09:26:41.003Z,8.85
2022-10-08T09:32:02.092Z,7.35
2022-10-08T09:37:26.331Z,7.93
2022-10-08T09:43:20.322Z,6.47
2022-10-08T09:48:41.776Z,7.55
2022-10-08T09:54:04.466Z,6.65
2022-10-08T09:59:29.344Z,7.20
2022-10-08T10:04:54.251Z,7.80
2022-10-08T10:10:14.982Z,7.95
2022-10-08T10:15:44.440Z,7.55
2022-10-08T10:21:10.654Z,8.55
2022-10-08T10:26:37.819Z,7.93
2022-10-08T10:32:06.238Z,6.72
2022-10-08T10:37:44.880Z,6.65
2022-10-08T10:43:27.453Z,6.35
2022-10-08T10:48:49.819Z,6.63
2022-10-08T10:54:45.615Z,7.22
2022-10-08T11:00:14.143Z,7.10
2022-10-08T11:05:37.249Z,6.70
2022-10-08T11:11:09.750Z,7.97
2022-10-08T11:16:46.686Z,6.85
2022-10-08T11:22:17.520Z,7.28
2022-10-08T11:28:02.941Z,6.90
2022-10-08T11:33:24.938Z,7.30
2022-10-08T11:39:00.128Z,6.82
2022-10-08T11:44:21.713Z,7.82
2022-10-08T11:49:56.383Z,7.88
2022-10-08T11:55:37.845Z,7.30
2022-10-08T12:01:05.637Z,6.85
2022-10-08T12:06:36.708Z,5.70
2022-10-08T12:11:57.383Z,5.18
2022-10-08T12:17:18.373Z,6.35
2022-10-08T12:22:39.249Z,5.88
2022-10-08T12:28:21.877Z,7.60
2022-10-08T12:33:42.886Z,7.28
2022-10-08T12:39:11.727Z,6.53
2022-10-08T12:44:45.019Z,7.38
2022-10-08T12:50:58.105Z,7.72
2022-10-08T12:56:26.263Z,6.90
2022-10-08T13:01:48.850Z,5.03
2022-10-08T13:07:25.591Z,5.88
2022-10-08T13:13:03.174Z,6.65
2022-10-08T13:18:23.751Z,4.85
2022-10-08T13:23:45.002Z,5.47
2022-10-08T13:29:24.047Z,5.32
2022-10-08T13:35:04.996Z,5.50
2022-10-08T13:40:26.176Z,3.85
2022-10-08T13:45:47.213Z,4.63
2022-10-08T13:51:10.470Z,4.00
2022-10-08T13:56:31.439Z,5.18
2022-10-08T14:01:52.729Z,4.75
2022-10-08T14:07:22.911Z,4.28
2022-10-08T14:12:44.034Z,4.68
2022-10-08T14:18:04.980Z,4.57
2022-10-08T14:23:25.969Z,4.50
2022-10-08T14:28:47.064Z,4.90
2022-10-08T14:34:07.974Z,4.68
2022-10-08T14:39:28.759Z,5.03
2022-10-08T14:44:49.456Z,3.67
2022-10-08T14:50:10.322Z,4.40
2022-10-08T14:55:31.156Z,4.30
2022-10-08T15:00:56.012Z,3.63
2022-10-08T15:06:16.349Z,4.13
2022-10-08T15:11:37.300Z,4.57
2022-10-08T15:16:58.041Z,5.68
2022-10-08T15:22:18.773Z,4.85
2022-10-08T15:27:39.509Z,4.75
2022-10-08T15:33:05.019Z,4.38
2022-10-08T15:38:26.001Z,4.63
2022-10-08T15:43:47.252Z,5.40
2022-10-08T15:49:08.198Z,4.63
2022-10-08T15:54:29.471Z,5.03
2022-10-08T15:59:50.061Z,5.38
2022-10-08T16:05:11.112Z,5.80
2022-10-08T16:10:31.681Z,5.07
2022-10-08T16:15:52.547Z,6.72
2022-10-08T16:21:13.989Z,6.38
2022-10-08T16:26:35.634Z,7.28
2022-10-08T16:31:56.562Z,6.70
2022-10-08T16:37:18.223Z,7.50
2022-10-08T16:42:38.852Z,6.53
2022-10-08T16:48:00.425Z,7.38
2022-10-08T16:53:21.472Z,7.88
2022-10-08T16:58:42.327Z,7.15
2022-10-08T17:04:05.998Z,5.60
2022-10-08T17:09:26.850Z,6.03
2022-10-08T17:14:47.630Z,6.97
2022-10-08T17:20:08.547Z,5.68
2022-10-08T17:25:29.549Z,6.10
2022-10-08T17:30:50.648Z,5.13
2022-10-08T17:36:14.621Z,5.93
2022-10-08T17:41:39.415Z,4.97
2022-10-08T17:47:00.172Z,5.00
2022-10-08T17:52:21.696Z,3.97
2022-10-08T17:57:42.350Z,4.10
2022-10-08T18:03:03.089Z,5.25
2022-10-08T18:08:23.776Z,4.43
2022-10-08T18:13:44.669Z,4.78
2022-10-08T18:19:08.786Z,6.20
2022-10-08T18:24:29.755Z,5.57
2022-10-08T18:29:50.416Z,3.30
2022-10-08T18:35:11.928Z,3.20
2022-10-08T18:40:32.761Z,3.10
2022-10-08T18:45:53.555Z,3.17
2022-10-08T18:51:22.920Z,3.05
2022-10-08T18:56:43.919Z,3.50
2022-10-08T19:02:04.787Z,3.20
2022-10-08T19:07:25.741Z,1.52
2022-10-08T19:12:46.659Z,1.08
2022-10-08T19:18:08.935Z,1.25
2022-10-08T19:23:30.791Z,1.35
2022-10-08T19:28:53.817Z,1.30
2022-10-08T19:34:16.183Z,1.45
2022-10-08T19:39:41.713Z,1.10
2022-10-08T19:45:05.108Z,1.10
2022-10-08T19:50:25.893Z,1.48
2022-10-08T19:55:46.483Z,1.80
2022-10-08T20:01:12.799Z,2.05
2022-10-08T20:06:38.706Z,2.20
2022-10-08T20:11:59.543Z,1.75
2022-10-08T20:17:20.613Z,1.67
2022-10-08T20:22:41.542Z,1.75
2022-10-08T20:28:03.700Z,1.38
2022-10-08T20:33:24.392Z,1.90
2022-10-08T20:38:45.162Z,1.65
2022-10-08T20:44:06.445Z,1.88
2022-10-08T20:49:27.352Z,2.08
2022-10-08T20:54:47.911Z,2.20
2022-10-08T21:00:09.070Z,1.67
2022-10-08T21:05:29.694Z,1.75
2022-10-08T21:10:50.165Z,2.00
2022-10-08T21:16:20.298Z,2.70
2022-10-08T21:21:42.046Z,1.90
2022-10-08T21:27:02.944Z,1.85
2022-10-08T21:32:23.680Z,2.03
2022-10-08T21:37:44.209Z,1.58
2022-10-08T21:43:05.081Z,1.90
2022-10-08T21:48:27.928Z,1.95
2022-10-08T21:53:54.050Z,2.13
2022-10-08T21:59:15.859Z,2.00
2022-10-08T22:04:36.618Z,3.13
2022-10-08T22:09:57.098Z,3.08
2022-10-08T22:15:18.855Z,4.63
2022-10-08T22:20:39.563Z,8.48
2022-10-08T22:26:03.495Z,12.15
2022-10-08T22:31:24.811Z,6.97
2022-10-08T22:36:45.590Z,2.35
2022-10-08T22:42:06.318Z,2.70
2022-10-08T22:47:26.948Z,1.85
2022-10-08T22:52:50.051Z,2.50
2022-10-08T22:58:11.123Z,2.03
2022-10-08T23:03:32.197Z,5.20
2022-10-08T23:08:58.798Z,4.43
2022-10-08T23:14:19.781Z,3.20
2022-10-08T23:19:40.480Z,3.75
2022-10-08T23:25:01.090Z,2.22
2022-10-08T23:30:41.967Z,1.98
2022-10-08T23:36:02.471Z,2.05
2022-10-08T23:41:24.275Z,1.73
2022-10-08T23:46:45.145Z,2.13
2022-10-08T23:52:05.705Z,1.83
2022-10-08T23:57:26.500Z,1.70
